Colorado Star — 9HA2189 — position and weather

sailwx.info

Track history (hours):
 
Tides and Currents Weather Stations Pressure Air Temp Water Temp Dewpoint Dewpoint Depression Visibility Wind Speed Wind Dir Waves Ship Positions

Colorado Star

Last reported at 2017-Feb-28 05:34 UTC. Time now 2017-Feb-28 05:35 UTC.
Position N 51°25' E 001°28'.

Length 128 m; draft 6.3 m.

Type: Ship. MMSI: 248127000.

Date/timePositionNaut miles runAvg speedWind from/ knotsBaromVisibWave heightAir tempDewpointWater temp
2017-Feb-28 05:34N 51°25' E 001°28'0 0.0
2017-Feb-28 04:34N 51°25' E 001°28'0 0.0
2017-Feb-28 03:33N 51°25' E 001°28'0 0.1
2017-Feb-28 02:33N 51°25' E 001°28'0 0.1
2017-Feb-28 01:34N 51°25' E 001°27'0 0.1
2017-Feb-28 00:33N 51°25' E 001°27'3 3.2
2017-Feb-27 23:33N 51°28' E 001°24'1010.4
2017-Feb-27 22:33N 51°29' E 001°07'1010.4
2017-Feb-27 21:33N 51°29' E 000°51'1111.1
2017-Feb-27 20:33N 51°30' E 000°33'10 9.5
2017-Feb-27 19:34N 51°28' E 000°18'0 0.3
2017-Feb-27 18:34N 51°28' E 000°18'0 0.0
2017-Feb-26 17:10N 51°28' E 000°18'0 0.0
2017-Feb-26 16:34N 51°28' E 000°18'3 3.0
2017-Feb-26 15:34N 51°27' E 000°23'6 6.0
2017-Feb-26 14:34N 51°30' E 000°31'9 9.1
2017-Feb-26 13:33N 51°29' E 000°46'1010.0
2017-Feb-26 12:33N 51°30' E 001°02'1211.7
2017-Feb-26 11:33N 51°28' E 001°20'5 4.8
2017-Feb-26 10:33N 51°25' E 001°25'0 0.1
2017-Feb-26 09:33N 51°25' E 001°25'0 0.1
2017-Feb-26 08:33N 51°25' E 001°25'0 0.2
2017-Feb-26 07:33N 51°25' E 001°26'0 0.0
2017-Feb-26 06:33N 51°25' E 001°26'0 0.0
2017-Feb-26 05:33N 51°25' E 001°26'0 0.0
2017-Feb-26 04:33N 51°25' E 001°26'0 0.0
2017-Feb-26 03:33N 51°25' E 001°26'0 0.0
2017-Feb-26 02:33N 51°25' E 001°26'0 0.0
2017-Feb-26 01:33N 51°25' E 001°26'0 0.1
2017-Feb-26 00:32N 51°25' E 001°25'0 0.1
2017-Feb-25 23:33N 51°25' E 001°25'0 0.0
2017-Feb-25 22:33N 51°25' E 001°25'0 0.0
2017-Feb-25 21:33N 51°25' E 001°25'0 0.0
2017-Feb-25 20:33N 51°25' E 001°25'0 0.1
2017-Feb-25 19:33N 51°25' E 001°26'0 0.1
2017-Feb-25 18:33N 51°25' E 001°26'0 0.0
2017-Feb-25 17:33N 51°25' E 001°26'0 0.0
2017-Feb-25 16:33N 51°25' E 001°26'0 0.0
2017-Feb-25 15:33N 51°25' E 001°26'0 0.0
2017-Feb-25 14:33N 51°25' E 001°26'0 0.0
2017-Feb-25 13:33N 51°25' E 001°26'0 0.1
2017-Feb-25 12:33N 51°25' E 001°26'0 0.2
2017-Feb-25 11:33N 51°25' E 001°25'0 0.0
2017-Feb-25 10:33N 51°25' E 001°25'0 0.0
2017-Feb-25 09:33N 51°25' E 001°25'0 0.0
2017-Feb-25 08:33N 51°25' E 001°25'0 0.2
2017-Feb-25 07:33N 51°25' E 001°26'0 0.1
2017-Feb-25 06:33N 51°25' E 001°26'0 0.0
2017-Feb-25 05:33N 51°25' E 001°26'0 0.0
2017-Feb-25 04:33N 51°25' E 001°26'0 0.0
2017-Feb-25 03:33N 51°25' E 001°26'0 0.0
2017-Feb-25 02:33N 51°25' E 001°26'0 0.1
2017-Feb-25 01:33N 51°25' E 001°26'0 0.1
2017-Feb-25 00:33N 51°25' E 001°26'0 0.1
2017-Feb-24 23:32N 51°25' E 001°25'6 6.6
2017-Feb-24 22:33N 51°28' E 001°34'1211.6
2017-Feb-24 21:33N 51°35' E 001°50'1212.4
2017-Feb-24 20:33N 51°42' E 002°06'50610.8
2017-Feb-22 21:33N 58°44' E 010°14'1110.7
2017-Feb-22 20:33N 58°53' E 010°26'1010.1
2017-Feb-22 19:33N 59°02' E 010°34'9 9.4
2017-Feb-22 18:33N 59°11' E 010°37'9 8.9
2017-Feb-22 17:32N 59°20' E 010°31'0 0.0
2017-Feb-22 16:32N 59°20' E 010°31'0 0.0
2017-Feb-22 15:32N 59°20' E 010°31'0 0.0
2017-Feb-22 14:32N 59°20' E 010°31'0 0.0
2017-Feb-22 13:32N 59°20' E 010°31'0 0.0
2017-Feb-22 12:29N 59°20' E 010°31'0 0.0
2017-Feb-22 11:32N 59°20' E 010°31'0 0.0
2017-Feb-22 10:32N 59°20' E 010°31'0 0.0
2017-Feb-22 09:32N 59°20' E 010°31'0 0.0
2017-Feb-22 08:32N 59°20' E 010°31'0 0.0
2017-Feb-22 07:32N 59°20' E 010°31'0 0.0
2017-Feb-22 06:32N 59°20' E 010°31'0 0.0
2017-Feb-22 05:32N 59°20' E 010°31'0 0.0
2017-Feb-22 04:32N 59°20' E 010°31'0 0.0
2017-Feb-22 03:32N 59°20' E 010°31'0 0.0
2017-Feb-22 02:32N 59°20' E 010°31'0 0.0
2017-Feb-22 01:32N 59°20' E 010°31'0 0.0
2017-Feb-22 00:32N 59°20' E 010°31'0 0.0
2017-Feb-21 23:32N 59°20' E 010°31'0 0.0
2017-Feb-21 22:32N 59°20' E 010°31'0 0.0
2017-Feb-21 21:32N 59°20' E 010°31'0 0.0
2017-Feb-21 20:32N 59°20' E 010°31'0 0.0
2017-Feb-21 19:29N 59°20' E 010°31'0 0.0
2017-Feb-21 18:32N 59°20' E 010°31'0 0.0
2017-Feb-21 17:32N 59°20' E 010°31'0 0.5
2017-Feb-21 16:33N 59°20' E 010°31'0 0.2
2017-Feb-21 15:32N 59°20' E 010°30'0 0.0
2017-Feb-21 14:32N 59°20' E 010°30'0 0.0
2017-Feb-21 13:32N 59°20' E 010°30'0 0.0
2017-Feb-21 12:32N 59°20' E 010°30'0 0.0
2017-Feb-21 11:32N 59°20' E 010°30'0 0.0
2017-Feb-21 10:32N 59°20' E 010°30'0 0.0
2017-Feb-21 09:32N 59°20' E 010°30'0 0.0
2017-Feb-21 08:32N 59°20' E 010°30'0 0.0
2017-Feb-21 07:32N 59°20' E 010°30'0 0.0
2017-Feb-21 06:32N 59°20' E 010°30'0 0.0
2017-Feb-21 05:32N 59°20' E 010°30'0 0.0
2017-Feb-21 04:32N 59°20' E 010°30'0 0.0
2017-Feb-21 03:32N 59°20' E 010°30'0 0.0
2017-Feb-21 02:32N 59°20' E 010°30'0 0.0
2017-Feb-21 01:32N 59°20' E 010°30'0 0.0
2017-Feb-21 00:32N 59°20' E 010°30'0 0.0
2017-Feb-20 23:32N 59°20' E 010°30'0 0.0
2017-Feb-20 22:32N 59°20' E 010°30'0 0.0
2017-Feb-20 21:32N 59°20' E 010°30'0 0.0
2017-Feb-20 20:32N 59°20' E 010°30'0 0.0
2017-Feb-20 19:32N 59°20' E 010°30'0 0.0
2017-Feb-20 18:32N 59°20' E 010°30'0 0.0
2017-Feb-20 17:32N 59°20' E 010°30'0 0.0
2017-Feb-20 16:32N 59°20' E 010°30'0 0.0
2017-Feb-20 15:32N 59°20' E 010°30'0 0.1
2017-Feb-20 14:32N 59°20' E 010°30'0 0.0
2017-Feb-20 13:32N 59°20' E 010°30'0 0.1
2017-Feb-20 12:32N 59°20' E 010°30'0 0.0
2017-Feb-20 11:32N 59°20' E 010°30'0 0.0
2017-Feb-20 10:32N 59°20' E 010°30'0 0.0
2017-Feb-20 09:32N 59°20' E 010°30'0 0.0
2017-Feb-20 08:32N 59°20' E 010°30'0 0.0
2017-Feb-20 07:32N 59°20' E 010°30'0 0.0
2017-Feb-20 06:32N 59°20' E 010°30'0 0.0
2017-Feb-20 05:32N 59°20' E 010°30'0 0.0
2017-Feb-20 04:32N 59°20' E 010°30'0 0.0
2017-Feb-20 03:32N 59°20' E 010°30'0 0.0
2017-Feb-20 02:32N 59°20' E 010°30'0 0.0
2017-Feb-20 01:32N 59°20' E 010°30'0 0.0
2017-Feb-20 00:32N 59°20' E 010°30'0 0.0
2017-Feb-19 23:32N 59°20' E 010°30'0 0.0
2017-Feb-19 22:32N 59°20' E 010°30'0 0.0
2017-Feb-19 21:32N 59°20' E 010°30'0 0.0
2017-Feb-19 20:32N 59°20' E 010°30'0 0.0
2017-Feb-19 19:32N 59°20' E 010°30'0 0.0
2017-Feb-19 18:32N 59°20' E 010°30'0 0.0
2017-Feb-19 17:32N 59°20' E 010°30'0 0.0
2017-Feb-19 16:32N 59°20' E 010°30'0 0.0
2017-Feb-19 15:32N 59°20' E 010°30'0 0.0
2017-Feb-19 14:32N 59°20' E 010°30'0 0.0
2017-Feb-19 13:32N 59°20' E 010°30'0 0.1
2017-Feb-19 12:32N 59°20' E 010°30'0 0.0
2017-Feb-19 11:32N 59°20' E 010°30'0 0.0
2017-Feb-19 10:32N 59°20' E 010°30'0 0.1
2017-Feb-19 09:32N 59°20' E 010°30'0 0.0
2017-Feb-19 08:32N 59°20' E 010°30'0 0.0
2017-Feb-19 07:32N 59°20' E 010°30'0 0.0
2017-Feb-19 06:32N 59°20' E 010°30'0 0.0
2017-Feb-19 05:32N 59°20' E 010°30'0 0.0
2017-Feb-19 04:32N 59°20' E 010°30'0 0.0
2017-Feb-19 03:32N 59°20' E 010°30'0 0.1
2017-Feb-19 02:32N 59°20' E 010°30'0 0.0
2017-Feb-19 01:32N 59°20' E 010°30'0 0.0
2017-Feb-19 00:32N 59°20' E 010°30'0 0.0
2017-Feb-18 23:32N 59°20' E 010°30'0 0.0
2017-Feb-18 22:32N 59°20' E 010°30'0 0.1
2017-Feb-18 21:32N 59°20' E 010°30'0 0.0
2017-Feb-18 20:32N 59°20' E 010°30'0 0.0
2017-Feb-18 19:32N 59°20' E 010°30'0 0.0
2017-Feb-18 18:32N 59°20' E 010°30'0 0.0
2017-Feb-18 17:32N 59°20' E 010°30'0 0.0
2017-Feb-18 16:32N 59°20' E 010°30'0 0.0
2017-Feb-18 15:32N 59°20' E 010°30'0 0.0
2017-Feb-18 14:32N 59°20' E 010°30'0 0.0
2017-Feb-18 13:32N 59°20' E 010°30'0 0.0
2017-Feb-18 12:32N 59°20' E 010°30'0 0.0
2017-Feb-18 11:32N 59°20' E 010°30'0 0.0
2017-Feb-18 10:32N 59°20' E 010°30'0 0.0
2017-Feb-18 09:32N 59°20' E 010°30'0 0.0
2017-Feb-18 08:32N 59°20' E 010°30'0 0.0
2017-Feb-18 07:32N 59°20' E 010°30'0 0.0
2017-Feb-18 06:32N 59°20' E 010°30'  
Track history (hours):
 
Tides and Currents Weather Stations Pressure Air Temp Water Temp Dewpoint Dewpoint Depression Visibility Wind Speed Wind Dir Waves Ship Positions

Colorado Star

Last reported at 2017-Feb-28 05:34 UTC. Time now 2017-Feb-28 05:35 UTC.
Position N 51°25' E 001°28'.

Length 128 m; draft 6.3 m.

Type: Ship. MMSI: 248127000.

Date/timePositionNaut miles runAvg speedWind from/ knotsBaromVisibWave heightAir tempDewpointWater temp
2017-Feb-28 05:34N 51°25' E 001°28'0 0.0
2017-Feb-28 04:34N 51°25' E 001°28'0 0.0
2017-Feb-28 03:33N 51°25' E 001°28'0 0.1
2017-Feb-28 02:33N 51°25' E 001°28'0 0.1
2017-Feb-28 01:34N 51°25' E 001°27'0 0.1
2017-Feb-28 00:33N 51°25' E 001°27'3 3.2
2017-Feb-27 23:33N 51°28' E 001°24'1010.4
2017-Feb-27 22:33N 51°29' E 001°07'1010.4
2017-Feb-27 21:33N 51°29' E 000°51'1111.1
2017-Feb-27 20:33N 51°30' E 000°33'10 9.5
2017-Feb-27 19:34N 51°28' E 000°18'0 0.3
2017-Feb-27 18:34N 51°28' E 000°18'0 0.0
2017-Feb-26 17:10N 51°28' E 000°18'0 0.0
2017-Feb-26 16:34N 51°28' E 000°18'3 3.0
2017-Feb-26 15:34N 51°27' E 000°23'6 6.0
2017-Feb-26 14:34N 51°30' E 000°31'9 9.1
2017-Feb-26 13:33N 51°29' E 000°46'1010.0
2017-Feb-26 12:33N 51°30' E 001°02'1211.7
2017-Feb-26 11:33N 51°28' E 001°20'5 4.8
2017-Feb-26 10:33N 51°25' E 001°25'0 0.1
2017-Feb-26 09:33N 51°25' E 001°25'0 0.1
2017-Feb-26 08:33N 51°25' E 001°25'0 0.2
2017-Feb-26 07:33N 51°25' E 001°26'0 0.0
2017-Feb-26 06:33N 51°25' E 001°26'0 0.0
2017-Feb-26 05:33N 51°25' E 001°26'0 0.0
2017-Feb-26 04:33N 51°25' E 001°26'0 0.0
2017-Feb-26 03:33N 51°25' E 001°26'0 0.0
2017-Feb-26 02:33N 51°25' E 001°26'0 0.0
2017-Feb-26 01:33N 51°25' E 001°26'0 0.1
2017-Feb-26 00:32N 51°25' E 001°25'0 0.1
2017-Feb-25 23:33N 51°25' E 001°25'0 0.0
2017-Feb-25 22:33N 51°25' E 001°25'0 0.0
2017-Feb-25 21:33N 51°25' E 001°25'0 0.0
2017-Feb-25 20:33N 51°25' E 001°25'0 0.1
2017-Feb-25 19:33N 51°25' E 001°26'0 0.1
2017-Feb-25 18:33N 51°25' E 001°26'0 0.0
2017-Feb-25 17:33N 51°25' E 001°26'0 0.0
2017-Feb-25 16:33N 51°25' E 001°26'0 0.0
2017-Feb-25 15:33N 51°25' E 001°26'0 0.0
2017-Feb-25 14:33N 51°25' E 001°26'0 0.0
2017-Feb-25 13:33N 51°25' E 001°26'0 0.1
2017-Feb-25 12:33N 51°25' E 001°26'0 0.2
2017-Feb-25 11:33N 51°25' E 001°25'0 0.0
2017-Feb-25 10:33N 51°25' E 001°25'0 0.0
2017-Feb-25 09:33N 51°25' E 001°25'0 0.0
2017-Feb-25 08:33N 51°25' E 001°25'0 0.2
2017-Feb-25 07:33N 51°25' E 001°26'0 0.1
2017-Feb-25 06:33N 51°25' E 001°26'0 0.0
2017-Feb-25 05:33N 51°25' E 001°26'0 0.0
2017-Feb-25 04:33N 51°25' E 001°26'0 0.0
2017-Feb-25 03:33N 51°25' E 001°26'0 0.0
2017-Feb-25 02:33N 51°25' E 001°26'0 0.1
2017-Feb-25 01:33N 51°25' E 001°26'0 0.1
2017-Feb-25 00:33N 51°25' E 001°26'0 0.1
2017-Feb-24 23:32N 51°25' E 001°25'6 6.6
2017-Feb-24 22:33N 51°28' E 001°34'1211.6
2017-Feb-24 21:33N 51°35' E 001°50'1212.4
2017-Feb-24 20:33N 51°42' E 002°06'50610.8
2017-Feb-22 21:33N 58°44' E 010°14'1110.7
2017-Feb-22 20:33N 58°53' E 010°26'1010.1
2017-Feb-22 19:33N 59°02' E 010°34'9 9.4
2017-Feb-22 18:33N 59°11' E 010°37'9 8.9
2017-Feb-22 17:32N 59°20' E 010°31'0 0.0
2017-Feb-22 16:32N 59°20' E 010°31'0 0.0
2017-Feb-22 15:32N 59°20' E 010°31'0 0.0
2017-Feb-22 14:32N 59°20' E 010°31'0 0.0
2017-Feb-22 13:32N 59°20' E 010°31'0 0.0
2017-Feb-22 12:29N 59°20' E 010°31'0 0.0
2017-Feb-22 11:32N 59°20' E 010°31'0 0.0
2017-Feb-22 10:32N 59°20' E 010°31'0 0.0
2017-Feb-22 09:32N 59°20' E 010°31'0 0.0
2017-Feb-22 08:32N 59°20' E 010°31'0 0.0
2017-Feb-22 07:32N 59°20' E 010°31'0 0.0
2017-Feb-22 06:32N 59°20' E 010°31'0 0.0
2017-Feb-22 05:32N 59°20' E 010°31'0 0.0
2017-Feb-22 04:32N 59°20' E 010°31'0 0.0
2017-Feb-22 03:32N 59°20' E 010°31'0 0.0
2017-Feb-22 02:32N 59°20' E 010°31'0 0.0
2017-Feb-22 01:32N 59°20' E 010°31'0 0.0
2017-Feb-22 00:32N 59°20' E 010°31'0 0.0
2017-Feb-21 23:32N 59°20' E 010°31'0 0.0
2017-Feb-21 22:32N 59°20' E 010°31'0 0.0
2017-Feb-21 21:32N 59°20' E 010°31'0 0.0
2017-Feb-21 20:32N 59°20' E 010°31'0 0.0
2017-Feb-21 19:29N 59°20' E 010°31'0 0.0
2017-Feb-21 18:32N 59°20' E 010°31'0 0.0
2017-Feb-21 17:32N 59°20' E 010°31'0 0.5
2017-Feb-21 16:33N 59°20' E 010°31'0 0.2
2017-Feb-21 15:32N 59°20' E 010°30'0 0.0
2017-Feb-21 14:32N 59°20' E 010°30'0 0.0
2017-Feb-21 13:32N 59°20' E 010°30'0 0.0
2017-Feb-21 12:32N 59°20' E 010°30'0 0.0
2017-Feb-21 11:32N 59°20' E 010°30'0 0.0
2017-Feb-21 10:32N 59°20' E 010°30'0 0.0
2017-Feb-21 09:32N 59°20' E 010°30'0 0.0
2017-Feb-21 08:32N 59°20' E 010°30'0 0.0
2017-Feb-21 07:32N 59°20' E 010°30'0 0.0
2017-Feb-21 06:32N 59°20' E 010°30'0 0.0
2017-Feb-21 05:32N 59°20' E 010°30'0 0.0
2017-Feb-21 04:32N 59°20' E 010°30'0 0.0
2017-Feb-21 03:32N 59°20' E 010°30'0 0.0
2017-Feb-21 02:32N 59°20' E 010°30'0 0.0
2017-Feb-21 01:32N 59°20' E 010°30'0 0.0
2017-Feb-21 00:32N 59°20' E 010°30'0 0.0
2017-Feb-20 23:32N 59°20' E 010°30'0 0.0
2017-Feb-20 22:32N 59°20' E 010°30'0 0.0
2017-Feb-20 21:32N 59°20' E 010°30'0 0.0
2017-Feb-20 20:32N 59°20' E 010°30'0 0.0
2017-Feb-20 19:32N 59°20' E 010°30'0 0.0
2017-Feb-20 18:32N 59°20' E 010°30'0 0.0
2017-Feb-20 17:32N 59°20' E 010°30'0 0.0
2017-Feb-20 16:32N 59°20' E 010°30'0 0.0
2017-Feb-20 15:32N 59°20' E 010°30'0 0.1
2017-Feb-20 14:32N 59°20' E 010°30'0 0.0
2017-Feb-20 13:32N 59°20' E 010°30'0 0.1
2017-Feb-20 12:32N 59°20' E 010°30'0 0.0
2017-Feb-20 11:32N 59°20' E 010°30'0 0.0
2017-Feb-20 10:32N 59°20' E 010°30'0 0.0
2017-Feb-20 09:32N 59°20' E 010°30'0 0.0
2017-Feb-20 08:32N 59°20' E 010°30'0 0.0
2017-Feb-20 07:32N 59°20' E 010°30'0 0.0
2017-Feb-20 06:32N 59°20' E 010°30'0 0.0
2017-Feb-20 05:32N 59°20' E 010°30'0 0.0
2017-Feb-20 04:32N 59°20' E 010°30'0 0.0
2017-Feb-20 03:32N 59°20' E 010°30'0 0.0
2017-Feb-20 02:32N 59°20' E 010°30'0 0.0
2017-Feb-20 01:32N 59°20' E 010°30'0 0.0
2017-Feb-20 00:32N 59°20' E 010°30'0 0.0
2017-Feb-19 23:32N 59°20' E 010°30'0 0.0
2017-Feb-19 22:32N 59°20' E 010°30'0 0.0
2017-Feb-19 21:32N 59°20' E 010°30'0 0.0
2017-Feb-19 20:32N 59°20' E 010°30'0 0.0
2017-Feb-19 19:32N 59°20' E 010°30'0 0.0
2017-Feb-19 18:32N 59°20' E 010°30'0 0.0
2017-Feb-19 17:32N 59°20' E 010°30'0 0.0
2017-Feb-19 16:32N 59°20' E 010°30'0 0.0
2017-Feb-19 15:32N 59°20' E 010°30'0 0.0
2017-Feb-19 14:32N 59°20' E 010°30'0 0.0
2017-Feb-19 13:32N 59°20' E 010°30'0 0.1
2017-Feb-19 12:32N 59°20' E 010°30'0 0.0
2017-Feb-19 11:32N 59°20' E 010°30'0 0.0
2017-Feb-19 10:32N 59°20' E 010°30'0 0.1
2017-Feb-19 09:32N 59°20' E 010°30'0 0.0
2017-Feb-19 08:32N 59°20' E 010°30'0 0.0
2017-Feb-19 07:32N 59°20' E 010°30'0 0.0
2017-Feb-19 06:32N 59°20' E 010°30'0 0.0
2017-Feb-19 05:32N 59°20' E 010°30'0 0.0
2017-Feb-19 04:32N 59°20' E 010°30'0 0.0
2017-Feb-19 03:32N 59°20' E 010°30'0 0.1
2017-Feb-19 02:32N 59°20' E 010°30'0 0.0
2017-Feb-19 01:32N 59°20' E 010°30'0 0.0
2017-Feb-19 00:32N 59°20' E 010°30'0 0.0
2017-Feb-18 23:32N 59°20' E 010°30'0 0.0
2017-Feb-18 22:32N 59°20' E 010°30'0 0.1
2017-Feb-18 21:32N 59°20' E 010°30'0 0.0
2017-Feb-18 20:32N 59°20' E 010°30'0 0.0
2017-Feb-18 19:32N 59°20' E 010°30'0 0.0
2017-Feb-18 18:32N 59°20' E 010°30'0 0.0
2017-Feb-18 17:32N 59°20' E 010°30'0 0.0
2017-Feb-18 16:32N 59°20' E 010°30'0 0.0
2017-Feb-18 15:32N 59°20' E 010°30'0 0.0
2017-Feb-18 14:32N 59°20' E 010°30'0 0.0
2017-Feb-18 13:32N 59°20' E 010°30'0 0.0
2017-Feb-18 12:32N 59°20' E 010°30'0 0.0
2017-Feb-18 11:32N 59°20' E 010°30'0 0.0
2017-Feb-18 10:32N 59°20' E 010°30'0 0.0
2017-Feb-18 09:32N 59°20' E 010°30'0 0.0
2017-Feb-18 08:32N 59°20' E 010°30'0 0.0
2017-Feb-18 07:32N 59°20' E 010°30'0 0.0
2017-Feb-18 06:32N 59°20' E 010°30'  

Dump ship's entire track history